KEWK

Newton-City-County Airport

Newton, Kansas, USA
METAR KEWK 182156Z AUTO 18010KT 10SM SCT110 09/02 A2992 RMK AO2 SLP136 T00940022
Observed Flight Rules
Dec-18 @ 21:56 UTC (2 hours ago) Visual Flight Rules
Wind Visibility Clouds
180° at 10 knots 10 miles
  • Scattered at 11,000' AGL
Temperatures Readings
Current 9°C / 48°F
Dewpoint 2°C / 36°F
Humidity 62%
Altimeter 29.92" Hg
Pressure 1013.6 hPa
Elevation 467
METAR KEWK 182156Z AUTO 18010KT 10SM SCT110 09/02 A2992 RMK AO2 SLP136 T00940022
Observed Flight Rules
Dec-18 @ 21:56 UTC
(2 hours ago)
VFR
Wind Visibility
180° at 10 knots 10 miles
Clouds
  • Scattered at 11,000' AGL
Temperature Dewpoint
9°C / 48°F 2°C / 36°F
Humidity Altimeter Pressure
62% 29.92" Hg 1013.6 hPa